Time;durP1;ratioP1;P1;durP2;ratioP2;P2;SDS_P1;SDS_P2;PMS_P1;PMS_P2;Temp;Humidity;BMP_temperature;BMP_pressure;BME280_temperature;BME280_humidity;BME280_pressure;Samples;Min_cycle;Max_cycle;Signal;HPM_P1;HPM_P2
2022/04/12 00:09:07;;;;;;;;;;;;;;;22.05;39.23;100766.03;20748441;27;104226;-75
2022/04/12 00:19:10;;;;;;;;;;;;;;;22.04;39.26;100756.44;20744217;27;97699;-74
2022/04/12 00:29:10;;;;;;;;;;;;;;;22.02;39.00;100745.16;20739678;27;103557;-76
2022/04/12 00:39:10;;;;;;;;;;;;;;;22.01;39.53;100743.50;20756026;27;98036;-74
2022/04/12 00:49:11;;;;;;;;;;;;;;;21.99;38.87;100737.50;20750764;27;97076;-74
2022/04/12 00:59:11;;;;;;;;;;;;;;;21.98;39.24;100747.19;20746844;27;97202;-75
2022/04/12 01:09:12;;;;;;;;;;;;;;;21.94;39.12;100740.47;20745812;27;97598;-75
2022/04/12 01:19:13;;;;;;;;;;;;;;;21.93;39.47;100738.78;20752764;27;97303;-76
2022/04/12 01:29:13;;;;;;;;;;;;;;;21.91;39.30;100735.44;20749192;27;97443;-75
2022/04/12 01:39:15;;;;;;;;;;;;;;;21.90;39.37;100726.69;20743047;27;97060;-74
2022/04/12 01:49:16;;;;;;;;;;;;;;;21.88;39.25;100733.84;20739029;27;96771;-75
2022/04/12 01:59:16;;;;;;;;;;;;;;;21.86;39.48;100735.78;20748348;27;97157;-74
2022/04/12 02:09:17;;;;;;;;;;;;;;;21.83;39.46;100733.38;20755187;27;97259;-75
2022/04/12 02:19:17;;;;;;;;;;;;;;;21.83;39.65;100738.63;20766728;27;97115;-74
2022/04/12 02:29:19;;;;;;;;;;;;;;;21.81;39.82;100726.53;20743176;27;106205;-75
2022/04/12 02:39:20;;;;;;;;;;;;;;;21.78;39.53;100746.06;20748326;27;99688;-74
2022/04/12 02:49:20;;;;;;;;;;;;;;;21.78;39.56;100747.88;20760717;27;97107;-74
2022/04/12 02:59:21;;;;;;;;;;;;;;;21.75;39.38;100747.13;20747849;27;97218;-74
2022/04/12 03:09:22;;;;;;;;;;;;;;;21.72;39.37;100754.41;20764756;27;100867;-75
2022/04/12 03:19:23;;;;;;;;;;;;;;;21.71;39.76;100752.75;20746637;27;98893;-75
2022/04/12 03:29:25;;;;;;;;;;;;;;;21.70;39.77;100757.19;20766726;27;97969;-74
2022/04/12 03:39:26;;;;;;;;;;;;;;;21.72;40.13;100760.53;20725490;27;101049;-76
2022/04/12 03:49:27;;;;;;;;;;;;;;;21.76;41.16;100763.78;20741005;27;100943;-76
2022/04/12 03:59:27;;;;;;;;;;;;;;;21.88;41.39;100770.75;20739057;27;98334;-79
2022/04/12 04:09:28;;;;;;;;;;;;;;;21.87;41.96;100778.78;20765905;27;97706;-77
2022/04/12 04:19:28;;;;;;;;;;;;;;;21.87;41.93;100776.16;20751716;27;97611;-80
2022/04/12 04:29:33;;;;;;;;;;;;;;;21.94;41.83;100782.66;20775297;27;97294;-76
2022/04/12 04:39:33;;;;;;;;;;;;;;;22.01;42.36;100794.44;20762812;27;97764;-76
2022/04/12 04:49:33;;;;;;;;;;;;;;;21.52;36.16;100800.63;20767874;27;97176;-77
2022/04/12 04:59:34;;;;;;;;;;;;;;;21.70;37.90;100816.94;20764137;27;97649;-78
2022/04/12 05:09:34;;;;;;;;;;;;;;;21.79;39.08;100821.56;20755795;27;103221;-77
2022/04/12 05:19:35;;;;;;;;;;;;;;;21.86;39.30;100837.75;20759910;27;96998;-77
2022/04/12 05:29:36;;;;;;;;;;;;;;;21.90;39.67;100836.59;20766530;27;96921;-78
2022/04/12 05:39:36;;;;;;;;;;;;;;;21.94;39.95;100832.75;20778774;27;97599;-78
2022/04/12 05:49:37;;;;;;;;;;;;;;;21.98;39.96;100839.47;20772581;27;100566;-78
2022/04/12 05:59:37;;;;;;;;;;;;;;;21.98;40.01;100855.28;20752755;27;97643;-75
2022/04/12 06:09:38;;;;;;;;;;;;;;;22.01;39.39;100870.09;20781692;27;98333;-76
2022/04/12 06:19:38;;;;;;;;;;;;;;;22.03;39.65;100866.38;20759828;27;100351;-77
2022/04/12 06:29:39;;;;;;;;;;;;;;;22.06;39.71;100870.56;20777271;27;97674;-76
2022/04/12 06:39:39;;;;;;;;;;;;;;;22.07;39.56;100878.38;20755364;27;97565;-77
2022/04/12 06:49:44;;;;;;;;;;;;;;;22.10;39.66;100887.03;20750816;27;98104;-78
2022/04/12 06:59:45;;;;;;;;;;;;;;;22.09;39.19;100878.25;20743015;27;96870;-76
2022/04/12 07:09:45;;;;;;;;;;;;;;;22.15;40.21;100879.59;20783038;27;96988;-77
2022/04/12 07:19:48;;;;;;;;;;;;;;;22.15;39.38;100892.78;20789545;27;97123;-77
2022/04/12 07:29:48;;;;;;;;;;;;;;;22.16;39.24;100887.38;20798807;27;97592;-77
2022/04/12 07:39:49;;;;;;;;;;;;;;;22.18;39.63;100884.63;20774748;27;99704;-77
2022/04/12 07:49:50;;;;;;;;;;;;;;;22.20;39.61;100878.31;20790866;27;97756;-77
2022/04/12 07:59:51;;;;;;;;;;;;;;;22.19;39.63;100889.81;20778671;27;96986;-76
2022/04/12 08:09:51;;;;;;;;;;;;;;;22.20;39.05;100891.50;20771877;27;98334;-76
2022/04/12 08:19:52;;;;;;;;;;;;;;;22.20;39.43;100895.91;20735211;27;96950;-76
2022/04/12 08:29:52;;;;;;;;;;;;;;;22.19;39.48;100891.59;20764713;27;98233;-76
2022/04/12 08:39:53;;;;;;;;;;;;;;;22.18;39.42;100901.31;20745016;27;100602;-77
2022/04/12 08:49:54;;;;;;;;;;;;;;;22.18;38.91;100903.97;20755407;27;97039;-77
2022/04/12 08:59:54;;;;;;;;;;;;;;;22.21;39.13;100897.59;20759919;27;97743;-75
2022/04/12 09:10:06;;;;;;;;;;;;;;;22.22;38.60;100889.56;20764492;27;101101;-75
2022/04/12 09:20:19;;;;;;;;;;;;;;;22.26;38.87;100887.56;20749146;27;96887;-75
2022/04/12 09:30:20;;;;;;;;;;;;;;;22.31;39.31;100864.31;20754500;27;97429;-76
2022/04/12 09:40:25;;;;;;;;;;;;;;;22.35;39.72;100862.28;20761358;27;97419;-76
2022/04/12 09:50:27;;;;;;;;;;;;;;;22.40;39.75;100857.53;20743226;27;97355;-77
2022/04/12 10:00:29;;;;;;;;;;;;;;;22.52;39.71;100848.69;20758819;27;97239;-77
2022/04/12 10:10:30;;;;;;;;;;;;;;;22.66;39.64;100855.56;20762469;27;97611;-76
2022/04/12 10:20:31;;;;;;;;;;;;;;;22.81;39.56;100834.22;20746152;27;97175;-77
2022/04/12 10:30:32;;;;;;;;;;;;;;;22.94;39.89;100815.63;20764581;27;99043;-77
2022/04/12 10:40:33;;;;;;;;;;;;;;;23.04;39.64;100803.38;20787437;27;97942;-79
2022/04/12 10:50:44;;;;;;;;;;;;;;;23.16;40.51;100797.16;20784702;27;97022;-78
2022/04/12 11:00:45;;;;;;;;;;;;;;;23.26;40.54;100801.72;20762172;27;100130;-78
2022/04/12 11:10:52;;;;;;;;;;;;;;;23.42;40.93;100786.28;20756686;27;96929;-80
2022/04/12 11:21:00;;;;;;;;;;;;;;;23.61;40.61;100761.03;20781023;27;96872;-79
2022/04/12 11:31:02;;;;;;;;;;;;;;;23.66;40.84;100751.72;20756014;27;98325;-79
2022/04/12 11:41:02;;;;;;;;;;;;;;;23.76;40.73;100746.53;20786487;27;97833;-78
2022/04/12 11:51:05;;;;;;;;;;;;;;;23.91;40.35;100752.38;20761345;27;99171;-78
2022/04/12 12:01:05;;;;;;;;;;;;;;;24.05;40.77;100735.34;20762147;27;97050;-79
2022/04/12 12:11:09;;;;;;;;;;;;;;;24.18;40.86;100736.97;20768751;27;97681;-78
2022/04/12 12:21:09;;;;;;;;;;;;;;;24.29;40.86;100726.28;20771624;27;97268;-79
2022/04/12 12:31:11;;;;;;;;;;;;;;;24.40;40.21;100722.72;20778675;27;97105;-79
2022/04/12 12:41:23;;;;;;;;;;;;;;;24.47;40.26;100705.34;20773368;27;98189;-78
2022/04/12 12:51:23;;;;;;;;;;;;;;;24.55;39.94;100700.22;20767851;27;97767;-79
2022/04/12 13:01:23;;;;;;;;;;;;;;;24.64;39.76;100687.16;20763974;27;97221;-79
2022/04/12 13:11:24;;;;;;;;;;;;;;;24.71;39.48;100689.16;20767094;27;98039;-79
2022/04/12 13:21:25;;;;;;;;;;;;;;;24.79;39.48;100680.53;20789816;27;98278;-80
2022/04/12 13:31:25;;;;;;;;;;;;;;;24.78;39.03;100670.94;20761906;27;96954;-80
2022/04/12 13:41:27;;;;;;;;;;;;;;;24.78;37.86;100663.00;20777091;27;96931;-79
2022/04/12 13:51:27;;;;;;;;;;;;;;;24.78;36.28;100665.63;20771082;27;97279;-78
2022/04/12 14:01:28;;;;;;;;;;;;;;;24.76;35.29;100660.47;20801418;27;97350;-79
2022/04/12 14:11:28;;;;;;;;;;;;;;;24.76;34.37;100649.03;20783061;27;97276;-79
2022/04/12 14:21:29;;;;;;;;;;;;;;;24.80;34.67;100639.84;20780933;27;97659;-80
2022/04/12 14:31:30;;;;;;;;;;;;;;;24.86;34.47;100628.69;20779759;27;100649;-79
2022/04/12 14:41:31;;;;;;;;;;;;;;;25.03;34.37;100636.94;20783865;27;98140;-77
2022/04/12 14:51:32;;;;;;;;;;;;;;;25.18;34.88;100626.75;20781718;27;97346;-76
2022/04/12 15:01:35;;;;;;;;;;;;;;;25.52;32.71;100629.00;20780037;27;96999;-77
2022/04/12 15:11:36;;;;;;;;;;;;;;;25.63;33.26;100630.69;20766082;27;97862;-77
2022/04/12 15:21:40;;;;;;;;;;;;;;;25.80;32.06;100626.44;20770377;27;97952;-77
2022/04/12 15:31:40;;;;;;;;;;;;;;;26.04;30.70;100618.00;20758806;27;97029;-77
2022/04/12 15:41:41;;;;;;;;;;;;;;;25.95;25.96;100608.25;20755466;27;97147;-77
2022/04/12 15:51:42;;;;;;;;;;;;;;;25.99;27.26;100609.66;20750245;27;98048;-78
2022/04/12 16:01:42;;;;;;;;;;;;;;;25.88;26.29;100619.44;20753382;27;97395;-78
2022/04/12 16:11:43;;;;;;;;;;;;;;;25.81;24.21;100636.09;20775315;27;97008;-78
2022/04/12 16:21:44;;;;;;;;;;;;;;;25.74;24.42;100622.53;20782704;27;98538;-78
2022/04/12 16:31:45;;;;;;;;;;;;;;;25.36;25.47;100626.91;20781006;27;97626;-79
2022/04/12 16:41:45;;;;;;;;;;;;;;;24.98;25.25;100632.06;20782355;27;96958;-82
2022/04/12 16:51:45;;;;;;;;;;;;;;;23.98;21.52;100642.44;20775729;27;96931;-76
2022/04/12 17:01:46;;;;;;;;;;;;;;;23.34;21.79;100635.47;20775405;27;97714;-80
2022/04/12 17:11:47;;;;;;;;;;;;;;;23.29;23.46;100641.13;20771574;27;96979;-80
2022/04/12 17:21:50;;;;;;;;;;;;;;;23.26;26.27;100646.66;20787038;27;97822;-80
2022/04/12 17:31:53;;;;;;;;;;;;;;;23.30;28.03;100657.81;20784178;27;98563;-80
2022/04/12 17:41:53;;;;;;;;;;;;;;;23.36;30.12;100652.03;20810848;27;97443;-80
2022/04/12 17:51:55;;;;;;;;;;;;;;;23.37;28.97;100655.53;20813923;27;98527;-78
2022/04/12 18:01:55;;;;;;;;;;;;;;;23.27;29.43;100650.97;20768527;27;97595;-78
2022/04/12 18:11:56;;;;;;;;;;;;;;;23.47;37.31;100659.06;20800743;27;97075;-79
2022/04/12 18:21:56;;;;;;;;;;;;;;;23.57;38.26;100675.00;20784927;27;97327;-79
2022/04/12 18:31:58;;;;;;;;;;;;;;;23.54;40.78;100686.66;20787753;27;97052;-80
2022/04/12 18:41:58;;;;;;;;;;;;;;;23.53;42.05;100700.00;20785923;27;99092;-80
2022/04/12 18:51:59;;;;;;;;;;;;;;;23.48;41.44;100716.25;20795040;27;97146;-78
2022/04/12 19:01:59;;;;;;;;;;;;;;;23.42;40.71;100716.75;20802115;27;100817;-81
2022/04/12 19:12:01;;;;;;;;;;;;;;;23.37;40.26;100717.13;20791502;27;99598;-81
2022/04/12 19:22:02;;;;;;;;;;;;;;;23.34;39.48;100728.78;20789823;27;99210;-81
2022/04/12 19:32:05;;;;;;;;;;;;;;;23.23;39.14;100735.91;20787462;27;97895;-82
2022/04/12 19:42:05;;;;;;;;;;;;;;;23.17;39.51;100742.53;20801977;27;97554;-81
2022/04/12 19:52:08;;;;;;;;;;;;;;;23.13;39.51;100744.53;20782393;27;98113;-81
2022/04/12 20:02:08;;;;;;;;;;;;;;;23.09;39.39;100744.91;20778923;27;98952;-80
2022/04/12 20:12:20;;;;;;;;;;;;;;;23.08;39.66;100745.88;20790288;27;97146;-80
2022/04/12 20:22:21;;;;;;;;;;;;;;;23.04;39.80;100755.84;20783063;27;96786;-81
2022/04/12 20:32:22;;;;;;;;;;;;;;;23.02;39.99;100753.31;20783016;27;97394;-80
2022/04/12 20:42:23;;;;;;;;;;;;;;;23.01;39.87;100764.00;20789572;27;96812;-81
2022/04/12 20:52:24;;;;;;;;;;;;;;;22.97;40.17;100763.41;20790728;27;96993;-80
2022/04/12 21:02:32;;;;;;;;;;;;;;;22.96;40.14;100767.00;20789262;27;97223;-80
2022/04/12 21:12:33;;;;;;;;;;;;;;;22.93;40.23;100769.88;20789788;27;97620;-80
2022/04/12 21:22:33;;;;;;;;;;;;;;;22.90;40.32;100764.88;20792753;27;96856;-80
2022/04/12 21:32:34;;;;;;;;;;;;;;;22.89;40.24;100765.81;20789220;27;97589;-80
2022/04/12 21:42:34;;;;;;;;;;;;;;;22.87;40.27;100765.09;20782170;27;97432;-81
2022/04/12 21:52:34;;;;;;;;;;;;;;;22.86;40.71;100788.03;20792864;27;97187;-81
2022/04/12 22:02:35;;;;;;;;;;;;;;;22.86;40.47;100784.53;20784506;27;97341;-81
2022/04/12 22:12:37;;;;;;;;;;;;;;;22.85;40.68;100798.69;20772194;27;97274;-80
2022/04/12 22:22:38;;;;;;;;;;;;;;;22.81;40.73;100800.75;20788842;27;97317;-81
2022/04/12 22:32:38;;;;;;;;;;;;;;;22.80;40.67;100812.28;20795059;27;102021;-81
2022/04/12 22:42:41;;;;;;;;;;;;;;;22.79;40.37;100812.38;20795356;27;97166;-81
2022/04/12 22:52:41;;;;;;;;;;;;;;;22.75;40.47;100811.75;20783246;27;97158;-80
2022/04/12 23:02:42;;;;;;;;;;;;;;;22.72;40.48;100809.38;20780258;27;100969;-81
2022/04/12 23:12:42;;;;;;;;;;;;;;;22.69;40.60;100818.38;20788902;27;97122;-81
2022/04/12 23:22:43;;;;;;;;;;;;;;;22.67;40.47;100817.66;20788633;27;97118;-80
2022/04/12 23:32:43;;;;;;;;;;;;;;;22.65;40.44;100826.66;20791451;27;97241;-81
2022/04/12 23:42:44;;;;;;;;;;;;;;;22.63;40.60;100815.34;20773567;27;98222;-80
2022/04/12 23:52:46;;;;;;;;;;;;;;;22.62;40.35;100813.66;20778769;27;97826;-81
